[CLOSED] ATC PG @ KSEA / Seattle

- Tower and Ground ATC available
- Pattern work accepted
- Runways in use: RWY 16R, 16C, 16L

METAR: KSEA 261153Z 13005KT 10SM FEW007 BKN044 02/00 A3053

NOTAM: Please follow instructions and be patient in heavy traffic. Pushback clearance may take a while. Thank you for cooperating and enjoy your flight!

@Captain_DJ @dush19 come along now if you want

2 Likes

Coming! I’ll be in a 737.

1 Like

Coming along in my 777-300ER.

1 Like

Thanks @LSZH34 !

2 Likes

I’m coming also.

Thansk everyone for coming and especially to those LISTENING. I have to get ready for my advanced test so expect many more ATC operations held by me ;)

3 Likes

@Captain_DJ you wanna come along ?

Yes! I love Birmingham, I think it’s where Jeremy Clarkson lives.

EDIT: He doesn’t live in Birmingham.

3 Likes

What happened?

I think I lost connection for a second

Meet at PAE?

1 Like

Pop in for some pattern work :D

Open now? @LSZH34?

Yes
Just opened

seems like your app crashed :D

I’ll come with an Air France!!

1 Like

don’t talk like that, it might crash…

Lost Connection.

2 Likes


Saw @dush19 in a B737BBJ 😉
I’ll come back soon!

1 Like

I’ll be closing in 5-10min though.

Question btw: I asked you to line up and wait and you responded but you didn’t line up and wait. Connection issues?

1 Like

Yeah there were some connection and issues in here. I’m very sorry about that.
and I’ll come back with my SQ’s A388 then